createdAt,value
2018-07-11T00:00:03.020Z,16.58
2018-07-11T00:01:03.014Z,16.63
2018-07-11T00:02:03.011Z,16.68
2018-07-11T00:03:02.992Z,16.61
2018-07-11T00:04:23.999Z,16.58
2018-07-11T00:05:02.979Z,16.61
2018-07-11T00:06:02.960Z,16.71
2018-07-11T00:07:02.951Z,16.63
2018-07-11T00:08:03.007Z,16.63
2018-07-11T00:09:02.940Z,16.58
2018-07-11T00:10:23.934Z,16.67
2018-07-11T00:11:02.922Z,16.63
2018-07-11T00:12:02.901Z,16.63
2018-07-11T00:13:02.896Z,16.70
2018-07-11T00:14:02.887Z,16.63
2018-07-11T00:15:02.909Z,16.66
2018-07-11T00:16:23.875Z,16.68
2018-07-11T00:17:02.862Z,16.60
2018-07-11T00:18:02.855Z,16.64
2018-07-11T00:19:02.841Z,16.64
2018-07-11T00:20:02.832Z,16.67
2018-07-11T00:21:02.819Z,16.70
2018-07-11T00:22:23.817Z,16.66
2018-07-11T00:23:02.793Z,16.67
2018-07-11T00:24:02.793Z,16.70
2018-07-11T00:25:02.779Z,16.66
2018-07-11T00:26:02.770Z,16.66
2018-07-11T00:27:02.764Z,16.70
2018-07-11T00:28:23.750Z,16.63
2018-07-11T00:29:02.744Z,16.66
2018-07-11T00:30:02.739Z,16.63
2018-07-11T00:31:02.726Z,16.63
2018-07-11T00:32:02.711Z,16.67
2018-07-11T00:33:02.706Z,16.63
2018-07-11T00:34:23.701Z,16.58
2018-07-11T00:35:02.685Z,16.57
2018-07-11T00:36:02.680Z,16.66
2018-07-11T00:37:02.735Z,16.70
2018-07-11T00:38:02.665Z,16.56
2018-07-11T00:39:02.651Z,16.64
2018-07-11T00:40:23.639Z,16.64
2018-07-11T00:41:02.629Z,16.56
2018-07-11T00:42:02.621Z,16.61
2018-07-11T00:43:02.630Z,16.67
2018-07-11T00:44:02.601Z,16.63
2018-07-11T00:45:02.591Z,16.63
2018-07-11T00:46:23.601Z,16.50
2018-07-11T00:47:02.572Z,16.57
2018-07-11T00:48:02.564Z,16.56
2018-07-11T00:49:02.555Z,16.48
2018-07-11T00:50:02.546Z,16.56
2018-07-11T00:51:02.534Z,16.48
2018-07-11T00:52:23.537Z,16.46
2018-07-11T00:53:02.513Z,16.45
2018-07-11T00:54:02.503Z,16.49
2018-07-11T00:55:02.508Z,16.45
2018-07-11T00:56:02.487Z,16.46
2018-07-11T00:57:02.480Z,16.49
2018-07-11T00:58:23.478Z,16.46
2018-07-11T00:59:02.459Z,16.43
2018-07-11T01:00:02.447Z,16.49
2018-07-11T01:01:02.445Z,16.48
2018-07-11T01:02:02.436Z,16.43
2018-07-11T01:03:02.419Z,16.39
2018-07-11T01:04:23.415Z,16.46
2018-07-11T01:05:02.410Z,16.48
2018-07-11T01:06:02.397Z,16.45
2018-07-11T01:07:02.388Z,16.45
2018-07-11T01:08:02.374Z,16.38
2018-07-11T01:09:02.366Z,16.42
2018-07-11T01:10:23.377Z,16.23
2018-07-11T01:11:02.354Z,16.30
2018-07-11T01:12:02.333Z,16.14
2018-07-11T01:13:02.327Z,16.17
2018-07-11T01:14:02.323Z,16.08
2018-07-11T01:15:02.304Z,16.20
2018-07-11T01:16:23.303Z,16.08
2018-07-11T01:17:02.289Z,16.07
2018-07-11T01:18:02.274Z,16.05
2018-07-11T01:19:02.271Z,16.05
2018-07-11T01:20:02.260Z,16.07
2018-07-11T01:21:02.244Z,16.07
2018-07-11T01:22:23.244Z,16.09
2018-07-11T01:23:02.234Z,16.14
2018-07-11T01:24:02.218Z,16.08
2018-07-11T01:25:02.209Z,16.12
2018-07-11T01:26:02.203Z,16.12
2018-07-11T01:27:02.188Z,16.14
2018-07-11T01:28:23.183Z,16.11
2018-07-11T01:29:02.167Z,16.11
2018-07-11T01:30:02.170Z,16.07
2018-07-11T01:31:02.162Z,16.11
2018-07-11T01:32:02.143Z,16.08
2018-07-11T01:33:02.133Z,16.09
2018-07-11T01:34:23.130Z,16.08
2018-07-11T01:35:02.111Z,16.11
2018-07-11T01:36:02.103Z,16.12
2018-07-11T01:37:02.096Z,16.14
2018-07-11T01:38:02.083Z,16.21
2018-07-11T01:39:02.076Z,16.24
2018-07-11T01:40:23.073Z,16.09
2018-07-11T01:41:02.051Z,16.09
2018-07-11T01:42:02.058Z,16.11
2018-07-11T01:43:02.039Z,16.05
2018-07-11T01:44:02.024Z,16.08
2018-07-11T01:45:02.016Z,16.08
2018-07-11T01:46:23.012Z,16.02
2018-07-11T01:47:01.994Z,15.97
2018-07-11T01:48:01.988Z,15.83
2018-07-11T01:49:01.972Z,15.87
2018-07-11T01:50:01.969Z,15.72
2018-07-11T01:51:01.959Z,15.87
2018-07-11T01:52:22.951Z,15.74
2018-07-11T01:53:01.941Z,15.72
2018-07-11T01:54:01.935Z,15.78
2018-07-11T01:55:01.917Z,15.67
2018-07-11T01:56:01.913Z,15.71
2018-07-11T01:57:01.898Z,15.68
2018-07-11T01:58:22.899Z,15.65
2018-07-11T01:59:01.891Z,15.54
2018-07-11T02:00:01.868Z,15.51
2018-07-11T02:01:01.865Z,15.54
2018-07-11T02:02:01.849Z,15.57
2018-07-11T02:03:01.831Z,15.51
2018-07-11T02:04:22.829Z,15.56
2018-07-11T02:05:01.815Z,15.51
2018-07-11T02:06:01.807Z,15.59
2018-07-11T02:07:01.806Z,15.51
2018-07-11T02:08:01.788Z,15.59
2018-07-11T02:09:01.781Z,15.60
2018-07-11T02:10:22.773Z,15.53
2018-07-11T02:11:01.763Z,15.65
2018-07-11T02:12:01.747Z,15.51
2018-07-11T02:13:01.734Z,15.51
2018-07-11T02:14:01.733Z,15.67
2018-07-11T02:15:01.721Z,15.64
2018-07-11T02:16:22.715Z,15.64
2018-07-11T02:17:01.701Z,15.57
2018-07-11T02:18:01.700Z,15.60
2018-07-11T02:19:01.675Z,15.67
2018-07-11T02:20:01.670Z,15.54
2018-07-11T02:21:01.662Z,15.67
2018-07-11T02:22:22.656Z,15.64
2018-07-11T02:23:01.642Z,15.64
2018-07-11T02:24:01.628Z,15.68
2018-07-11T02:25:01.618Z,15.68
2018-07-11T02:26:01.619Z,15.60
2018-07-11T02:27:01.602Z,15.68
2018-07-11T02:28:22.593Z,15.68
2018-07-11T02:29:01.582Z,15.71
2018-07-11T02:30:01.570Z,15.65
2018-07-11T02:31:01.562Z,15.62
2018-07-11T02:32:01.554Z,15.60
2018-07-11T02:33:01.540Z,15.68
2018-07-11T02:34:22.540Z,15.65
2018-07-11T02:35:01.523Z,15.68
2018-07-11T02:36:01.515Z,15.62
2018-07-11T02:37:01.496Z,15.62
2018-07-11T02:38:01.489Z,15.60
2018-07-11T02:39:01.482Z,15.71
2018-07-11T02:40:22.473Z,15.67
2018-07-11T02:41:01.459Z,15.68
2018-07-11T02:42:01.449Z,15.65
2018-07-11T02:43:01.437Z,15.67
2018-07-11T02:44:01.432Z,15.69
2018-07-11T02:45:01.417Z,15.62
2018-07-11T02:46:22.414Z,15.69
2018-07-11T02:47:01.407Z,15.80
2018-07-11T02:48:01.392Z,15.72
2018-07-11T02:49:01.389Z,15.67
2018-07-11T02:50:01.377Z,15.74
2018-07-11T02:51:01.362Z,15.65
2018-07-11T02:52:22.356Z,15.75
2018-07-11T02:53:01.338Z,15.68
2018-07-11T02:54:01.336Z,15.69
2018-07-11T02:55:01.323Z,15.80
2018-07-11T02:56:01.313Z,15.76
2018-07-11T02:57:01.304Z,15.74
2018-07-11T02:58:22.293Z,15.82
2018-07-11T02:59:01.297Z,15.78
2018-07-11T03:00:01.275Z,15.80
2018-07-11T03:01:01.259Z,15.76
2018-07-11T03:02:01.252Z,15.76
2018-07-11T03:03:01.242Z,15.76
2018-07-11T03:04:22.236Z,15.78
2018-07-11T03:05:01.230Z,15.80
2018-07-11T03:06:01.217Z,15.83
2018-07-11T03:07:01.201Z,15.76
2018-07-11T03:08:01.196Z,15.76
2018-07-11T03:09:01.211Z,15.69
2018-07-11T03:10:22.175Z,15.78
2018-07-11T03:11:01.155Z,15.71
2018-07-11T03:12:01.192Z,15.65
2018-07-11T03:13:01.136Z,15.64
2018-07-11T03:14:01.129Z,15.64
2018-07-11T03:15:01.136Z,15.60
2018-07-11T03:16:22.118Z,15.57
2018-07-11T03:17:01.112Z,15.67
2018-07-11T03:18:01.094Z,15.69
2018-07-11T03:19:01.078Z,15.54
2018-07-11T03:20:01.072Z,15.50
2018-07-11T03:21:01.070Z,15.44
2018-07-11T03:22:22.067Z,15.43
2018-07-11T03:23:01.044Z,15.38
2018-07-11T03:24:01.035Z,15.39
2018-07-11T03:25:01.022Z,15.35
2018-07-11T03:26:01.013Z,15.35
2018-07-11T03:27:01.005Z,15.23
2018-07-11T03:28:22.003Z,15.28
2018-07-11T03:29:00.983Z,15.19
2018-07-11T03:30:00.973Z,15.17
2018-07-11T03:31:00.961Z,15.23
2018-07-11T03:32:00.957Z,15.25
2018-07-11T03:33:00.937Z,15.19
2018-07-11T03:34:21.947Z,15.27
2018-07-11T03:35:00.927Z,15.19
2018-07-11T03:36:00.914Z,15.27
2018-07-11T03:37:00.897Z,15.23
2018-07-11T03:38:00.894Z,15.29
2018-07-11T03:39:00.878Z,15.29
2018-07-11T03:40:21.870Z,15.35
2018-07-11T03:41:00.861Z,15.35
2018-07-11T03:42:00.854Z,15.32
2018-07-11T03:43:00.840Z,15.29
2018-07-11T03:44:00.836Z,15.27
2018-07-11T03:45:00.819Z,15.27
2018-07-11T03:46:21.818Z,15.27
2018-07-11T03:47:00.804Z,15.25
2018-07-11T03:48:00.794Z,15.25
2018-07-11T03:49:00.776Z,15.19
2018-07-11T03:50:00.767Z,15.19
2018-07-11T03:51:00.776Z,15.25
2018-07-11T03:52:21.758Z,15.16
2018-07-11T03:53:00.741Z,15.23
2018-07-11T03:54:00.730Z,15.16
2018-07-11T03:55:00.716Z,15.17
2018-07-11T03:56:00.711Z,15.03
2018-07-11T03:57:00.700Z,15.10
2018-07-11T03:58:21.697Z,15.03
2018-07-11T03:59:00.678Z,15.03
2018-07-11T04:00:00.673Z,15.10
2018-07-11T04:01:00.657Z,15.10
2018-07-11T04:02:00.646Z,15.09
2018-07-11T04:03:00.638Z,15.07
2018-07-11T04:04:21.630Z,15.02
2018-07-11T04:05:00.617Z,15.09
2018-07-11T04:06:00.607Z,15.07
2018-07-11T04:07:00.596Z,15.13
2018-07-11T04:08:00.587Z,15.17
2018-07-11T04:09:00.575Z,15.13
2018-07-11T04:10:21.569Z,15.19
2018-07-11T04:11:00.557Z,15.11
2018-07-11T04:12:00.542Z,15.01
2018-07-11T04:13:00.534Z,15.06
2018-07-11T04:14:00.526Z,15.03
2018-07-11T04:15:00.514Z,15.07
2018-07-11T04:16:21.510Z,15.01
2018-07-11T04:17:00.491Z,15.02
2018-07-11T04:18:00.488Z,15.06
2018-07-11T04:19:00.481Z,15.16
2018-07-11T04:20:00.464Z,15.13
2018-07-11T04:21:00.450Z,15.10
2018-07-11T04:22:21.446Z,15.09
2018-07-11T04:23:00.429Z,15.10
2018-07-11T04:24:00.420Z,15.02
2018-07-11T04:25:00.408Z,15.11
2018-07-11T04:26:00.398Z,14.98
2018-07-11T04:27:00.391Z,15.06
2018-07-11T04:28:21.384Z,14.96
2018-07-11T04:29:00.365Z,15.06
2018-07-11T04:30:00.361Z,14.96
2018-07-11T04:31:00.346Z,14.95
2018-07-11T04:32:00.337Z,14.98
2018-07-11T04:33:00.331Z,14.92
2018-07-11T04:34:21.323Z,14.96
2018-07-11T04:35:00.309Z,14.92
2018-07-11T04:36:00.302Z,14.92
2018-07-11T04:37:00.281Z,14.89
2018-07-11T04:38:00.284Z,14.86
2018-07-11T04:39:00.272Z,14.78
2018-07-11T04:40:21.260Z,14.75
2018-07-11T04:41:00.249Z,14.80
2018-07-11T04:42:00.231Z,14.73
2018-07-11T04:43:00.225Z,14.84
2018-07-11T04:44:00.218Z,14.80
2018-07-11T04:45:00.203Z,14.78
2018-07-11T04:46:21.203Z,14.80
2018-07-11T04:47:00.191Z,14.78
2018-07-11T04:48:00.173Z,14.81
2018-07-11T04:49:00.163Z,14.89
2018-07-11T04:50:00.157Z,14.89
2018-07-11T04:51:00.141Z,14.92
2018-07-11T04:52:21.137Z,14.95
2018-07-11T04:53:00.122Z,14.98
2018-07-11T04:54:00.111Z,14.89
2018-07-11T04:55:00.101Z,14.98
2018-07-11T04:56:00.096Z,14.94
2018-07-11T04:57:00.084Z,14.89
2018-07-11T04:58:21.076Z,14.95
2018-07-11T04:59:00.062Z,14.96
2018-07-11T05:00:00.045Z,14.99
2018-07-11T05:01:00.044Z,15.02
2018-07-11T05:02:00.028Z,14.99
2018-07-11T05:03:00.030Z,15.01
2018-07-11T05:04:21.005Z,14.99
2018-07-11T05:04:59.995Z,15.01
2018-07-11T05:05:59.977Z,15.02
2018-07-11T05:06:59.979Z,15.06
2018-07-11T05:07:59.961Z,14.88
2018-07-11T05:08:59.958Z,15.02
2018-07-11T05:10:20.950Z,15.01
2018-07-11T05:11:00.057Z,15.10
2018-07-11T05:11:59.926Z,15.07
2018-07-11T05:12:59.914Z,15.10
2018-07-11T05:13:59.904Z,14.99
2018-07-11T05:14:59.889Z,15.06
2018-07-11T05:16:20.922Z,14.98
2018-07-11T05:16:59.865Z,14.92
2018-07-11T05:17:59.861Z,14.94
2018-07-11T05:18:59.850Z,14.95
2018-07-11T05:19:59.840Z,14.86
2018-07-11T05:20:59.829Z,14.91
2018-07-11T05:22:20.832Z,14.91
2018-07-11T05:22:59.814Z,14.94
2018-07-11T05:23:59.795Z,14.96
2018-07-11T05:24:59.792Z,14.94
2018-07-11T05:25:59.778Z,14.88
2018-07-11T05:26:59.768Z,14.91
2018-07-11T05:28:20.768Z,14.94
2018-07-11T05:28:59.744Z,14.91
2018-07-11T05:29:59.739Z,14.91
2018-07-11T05:30:59.730Z,14.95
2018-07-11T05:31:59.716Z,14.96
2018-07-11T05:32:59.705Z,14.94
2018-07-11T05:34:20.697Z,14.98
2018-07-11T05:34:59.684Z,14.96
2018-07-11T05:35:59.670Z,14.96
2018-07-11T05:36:59.668Z,15.02
2018-07-11T05:37:59.652Z,15.10
2018-07-11T05:38:59.648Z,14.99
2018-07-11T05:40:20.641Z,15.02
2018-07-11T05:40:59.623Z,14.94
2018-07-11T05:41:59.615Z,15.01
2018-07-11T05:42:59.604Z,14.96
2018-07-11T05:43:59.593Z,14.86
2018-07-11T05:44:59.577Z,14.73
2018-07-11T05:46:20.576Z,14.75
2018-07-11T05:46:59.563Z,14.72
2018-07-11T05:47:59.549Z,14.78
2018-07-11T05:48:59.539Z,14.72
2018-07-11T05:49:59.530Z,14.78
2018-07-11T05:50:59.514Z,14.72
2018-07-11T05:52:20.505Z,14.73
2018-07-11T05:52:59.493Z,14.69
2018-07-11T05:53:59.485Z,14.68
2018-07-11T05:54:59.476Z,14.73
2018-07-11T05:55:59.472Z,14.73
2018-07-11T05:56:59.451Z,14.62
2018-07-11T05:58:20.452Z,14.68
2018-07-11T05:58:59.427Z,14.68
2018-07-11T05:59:59.421Z,14.62
2018-07-11T06:00:59.410Z,14.65
2018-07-11T06:01:59.402Z,14.69
2018-07-11T06:02:59.391Z,14.75
2018-07-11T06:04:20.385Z,14.65
2018-07-11T06:04:59.366Z,14.64
2018-07-11T06:05:59.356Z,14.57
2018-07-11T06:06:59.349Z,14.58
2018-07-11T06:07:59.346Z,14.50
2018-07-11T06:08:59.331Z,14.43
2018-07-11T06:10:20.317Z,14.47
2018-07-11T06:10:59.308Z,14.40
2018-07-11T06:11:59.299Z,14.42
2018-07-11T06:12:59.285Z,14.43
2018-07-11T06:13:59.273Z,14.54
2018-07-11T06:14:59.264Z,14.62
2018-07-11T06:16:20.306Z,14.52
2018-07-11T06:16:59.238Z,14.52
2018-07-11T06:17:59.232Z,14.62
2018-07-11T06:18:59.226Z,14.68
2018-07-11T06:19:59.209Z,14.62
2018-07-11T06:20:59.197Z,14.70
2018-07-11T06:22:20.193Z,14.80
2018-07-11T06:22:59.196Z,14.80
2018-07-11T06:23:59.165Z,14.95
2018-07-11T06:24:59.155Z,14.99
2018-07-11T06:25:59.150Z,15.02
2018-07-11T06:26:59.131Z,15.01
2018-07-11T06:28:20.121Z,15.07
2018-07-11T06:28:59.120Z,15.03
2018-07-11T06:29:59.105Z,15.07
2018-07-11T06:30:59.092Z,15.09
2018-07-11T06:31:59.080Z,15.07
2018-07-11T06:32:59.074Z,15.20
2018-07-11T06:34:20.065Z,15.21
2018-07-11T06:34:59.052Z,15.17
2018-07-11T06:35:59.048Z,15.19
2018-07-11T06:36:59.028Z,15.16
2018-07-11T06:37:59.111Z,15.17
2018-07-11T06:38:59.011Z,15.17
2018-07-11T06:40:20.000Z,15.14
2018-07-11T06:40:58.981Z,15.20
2018-07-11T06:41:58.974Z,15.19
2018-07-11T06:42:58.993Z,15.16
2018-07-11T06:43:58.963Z,15.23
2018-07-11T06:44:58.959Z,15.28
2018-07-11T06:46:19.941Z,15.34
2018-07-11T06:46:58.922Z,15.36
2018-07-11T06:47:58.945Z,15.41
2018-07-11T06:48:58.907Z,15.53
2018-07-11T06:49:58.899Z,15.54
2018-07-11T06:50:58.930Z,15.54
2018-07-11T06:52:19.876Z,15.56
2018-07-11T06:52:58.870Z,15.67
2018-07-11T06:53:58.852Z,15.65
2018-07-11T06:54:58.846Z,15.65
2018-07-11T06:55:58.880Z,15.67
2018-07-11T06:56:58.822Z,15.64
2018-07-11T06:58:19.821Z,15.59
2018-07-11T06:58:58.802Z,15.64
2018-07-11T06:59:58.789Z,15.59
2018-07-11T07:00:58.785Z,15.60
2018-07-11T07:01:58.773Z,15.64
2018-07-11T07:02:58.755Z,15.62
2018-07-11T07:04:19.751Z,15.60
2018-07-11T07:04:58.742Z,15.56
2018-07-11T07:05:58.732Z,15.51
2018-07-11T07:06:58.715Z,15.47
2018-07-11T07:07:58.702Z,15.49
2018-07-11T07:08:58.700Z,15.36
2018-07-11T07:10:19.689Z,15.49
2018-07-11T07:10:58.684Z,15.39
2018-07-11T07:11:58.669Z,15.49
2018-07-11T07:12:58.662Z,15.47
2018-07-11T07:13:58.645Z,15.57
2018-07-11T07:14:58.634Z,15.59
2018-07-11T07:16:19.630Z,15.62
2018-07-11T07:16:58.618Z,15.59
2018-07-11T07:17:58.606Z,15.54
2018-07-11T07:18:58.602Z,15.60
2018-07-11T07:19:58.585Z,15.56
2018-07-11T07:20:58.576Z,15.50
2018-07-11T07:22:19.570Z,15.50
2018-07-11T07:22:58.554Z,15.49
2018-07-11T07:23:58.543Z,15.47
2018-07-11T07:24:58.533Z,15.56
2018-07-11T07:25:58.521Z,15.56
2018-07-11T07:26:58.513Z,15.65
2018-07-11T07:28:19.519Z,15.68
2018-07-11T07:28:58.562Z,15.74
2018-07-11T07:29:58.488Z,15.75
2018-07-11T07:30:58.475Z,15.97
2018-07-11T07:31:58.462Z,16.09
2018-07-11T07:32:58.450Z,16.24
2018-07-11T07:34:19.449Z,16.38
2018-07-11T07:34:58.455Z,16.61
2018-07-11T07:35:58.422Z,16.79
2018-07-11T07:36:58.422Z,16.88
2018-07-11T07:37:58.406Z,16.91
2018-07-11T07:38:58.412Z,16.88
2018-07-11T07:40:19.386Z,16.93
2018-07-11T07:40:58.373Z,17.08
2018-07-11T07:41:58.369Z,17.03
2018-07-11T07:42:58.358Z,16.98
2018-07-11T07:43:58.348Z,16.83
2018-07-11T07:44:58.331Z,16.85
2018-07-11T07:46:19.327Z,16.86
2018-07-11T07:46:58.323Z,16.70
2018-07-11T07:47:58.307Z,16.46
2018-07-11T07:48:58.291Z,16.41
2018-07-11T07:49:58.280Z,16.28
2018-07-11T07:50:58.274Z,16.20
2018-07-11T07:52:19.273Z,16.08
2018-07-11T07:52:58.297Z,16.11
2018-07-11T07:53:58.247Z,16.09
2018-07-11T07:54:58.239Z,16.07
2018-07-11T07:55:58.225Z,16.07
2018-07-11T07:56:58.210Z,16.08
2018-07-11T07:58:19.210Z,16.08
2018-07-11T07:58:58.194Z,16.14
2018-07-11T07:59:58.190Z,16.24
2018-07-11T08:00:58.176Z,16.42
2018-07-11T08:01:58.168Z,16.31
2018-07-11T08:02:58.160Z,16.42
2018-07-11T08:04:19.156Z,16.49
2018-07-11T08:04:58.136Z,16.48
2018-07-11T08:05:58.129Z,16.63
2018-07-11T08:06:58.138Z,16.61
2018-07-11T08:07:58.108Z,16.70
2018-07-11T08:08:58.096Z,16.68
2018-07-11T08:10:19.094Z,16.78
2018-07-11T08:10:58.081Z,16.68
2018-07-11T08:11:58.071Z,16.81
2018-07-11T08:12:58.062Z,17.00
2018-07-11T08:13:58.053Z,17.15
2018-07-11T08:14:58.038Z,17.22
2018-07-11T08:16:19.034Z,17.12
2018-07-11T08:16:58.028Z,17.03
2018-07-11T08:17:58.008Z,17.08
2018-07-11T08:18:58.002Z,16.96
2018-07-11T08:19:57.989Z,17.11
2018-07-11T08:20:57.984Z,17.15
2018-07-11T08:22:18.979Z,17.36
2018-07-11T08:22:57.967Z,17.48
2018-07-11T08:23:57.951Z,17.37
2018-07-11T08:24:57.947Z,17.49
2018-07-11T08:25:57.931Z,17.56
2018-07-11T08:26:57.924Z,17.77
2018-07-11T08:28:18.918Z,17.62
2018-07-11T08:28:57.911Z,17.64
2018-07-11T08:29:57.898Z,17.52
2018-07-11T08:30:57.889Z,17.63
2018-07-11T08:31:57.887Z,17.72
2018-07-11T08:32:57.871Z,17.68
2018-07-11T08:34:18.865Z,17.74
2018-07-11T08:34:57.881Z,17.86
2018-07-11T08:35:57.841Z,17.93
2018-07-11T08:36:57.828Z,17.97
2018-07-11T08:37:57.822Z,17.97
2018-07-11T08:38:57.806Z,18.05
2018-07-11T08:40:18.802Z,17.99
2018-07-11T08:40:57.788Z,18.07
2018-07-11T08:41:57.782Z,18.07
2018-07-11T08:42:57.780Z,18.05
2018-07-11T08:43:57.762Z,18.07
2018-07-11T08:44:57.751Z,18.10
2018-07-11T08:46:18.753Z,18.23
2018-07-11T08:46:57.743Z,18.08
2018-07-11T08:47:57.739Z,18.07
2018-07-11T08:48:57.719Z,18.10
2018-07-11T08:49:57.720Z,18.08
2018-07-11T08:50:57.705Z,18.20
2018-07-11T08:52:18.698Z,18.27
2018-07-11T08:52:57.688Z,18.33
2018-07-11T08:53:57.671Z,18.30
2018-07-11T08:54:57.671Z,18.30
2018-07-11T08:55:57.656Z,18.27
2018-07-11T08:56:57.651Z,18.39
2018-07-11T08:58:18.649Z,18.44
2018-07-11T08:58:57.624Z,18.47
2018-07-11T08:59:57.625Z,18.57
2018-07-11T09:00:57.610Z,18.51
2018-07-11T09:01:57.600Z,18.57
2018-07-11T09:02:57.592Z,18.65
2018-07-11T09:04:18.588Z,18.73
2018-07-11T09:04:57.568Z,18.73
2018-07-11T09:05:57.564Z,18.70
2018-07-11T09:06:57.558Z,18.66
2018-07-11T09:07:57.545Z,18.84
2018-07-11T09:08:57.540Z,18.90
2018-07-11T09:10:18.543Z,18.85
2018-07-11T09:10:57.528Z,18.88
2018-07-11T09:11:57.516Z,18.92
2018-07-11T09:12:57.500Z,18.94
2018-07-11T09:13:57.497Z,18.80
2018-07-11T09:14:57.487Z,18.88
2018-07-11T09:16:18.487Z,18.91
2018-07-11T09:16:57.466Z,18.84
2018-07-11T09:17:57.467Z,18.88
2018-07-11T09:18:57.487Z,18.92
2018-07-11T09:19:57.443Z,18.87
2018-07-11T09:20:57.438Z,18.81
2018-07-11T09:22:18.429Z,18.87
2018-07-11T09:22:57.413Z,18.85
2018-07-11T09:23:57.462Z,18.95
2018-07-11T09:24:57.400Z,19.04
2018-07-11T09:25:57.391Z,19.08
2018-07-11T09:26:57.385Z,19.11
2018-07-11T09:28:18.380Z,19.13
2018-07-11T09:28:57.368Z,19.18
2018-07-11T09:29:57.364Z,19.31
2018-07-11T09:30:57.353Z,19.18
2018-07-11T09:31:57.339Z,19.25
2018-07-11T09:32:57.331Z,19.14
2018-07-11T09:34:18.328Z,19.06
2018-07-11T09:34:57.313Z,18.95
2018-07-11T09:35:57.308Z,18.92
2018-07-11T09:36:57.302Z,18.94
2018-07-11T09:37:57.294Z,18.99
2018-07-11T09:38:57.284Z,19.08
2018-07-11T09:40:18.284Z,19.13
2018-07-11T09:40:57.265Z,19.22
2018-07-11T09:41:57.258Z,19.16
2018-07-11T09:42:57.252Z,19.19
2018-07-11T09:43:57.238Z,19.18
2018-07-11T09:44:57.232Z,19.23
2018-07-11T09:46:18.227Z,19.25
2018-07-11T09:46:57.227Z,19.21
2018-07-11T09:47:57.202Z,19.06
2018-07-11T09:48:57.190Z,19.02
2018-07-11T09:49:57.190Z,18.95
2018-07-11T09:50:57.176Z,18.99
2018-07-11T09:52:18.218Z,19.06
2018-07-11T09:52:57.164Z,19.04
2018-07-11T09:53:57.151Z,19.00
2018-07-11T09:54:57.141Z,19.13
2018-07-11T09:55:57.143Z,19.11
2018-07-11T09:56:57.128Z,19.18
2018-07-11T09:58:18.128Z,19.29
2018-07-11T09:58:57.121Z,19.32
2018-07-11T09:59:57.106Z,19.36
2018-07-11T10:00:57.095Z,19.46
2018-07-11T10:01:57.087Z,19.36
2018-07-11T10:02:57.082Z,19.39
2018-07-11T10:04:18.075Z,19.43
2018-07-11T10:04:57.060Z,19.46
2018-07-11T10:05:57.052Z,19.36
2018-07-11T10:06:57.048Z,19.23
2018-07-11T10:07:57.039Z,19.02
2018-07-11T10:08:57.028Z,18.91
2018-07-11T10:10:18.028Z,18.88
2018-07-11T10:10:57.008Z,18.91
2018-07-11T10:11:57.049Z,18.87
2018-07-11T10:12:56.999Z,19.02
2018-07-11T10:13:56.984Z,19.19
2018-07-11T10:14:56.985Z,19.23
2018-07-11T10:16:17.977Z,19.40
2018-07-11T10:16:56.962Z,19.40
2018-07-11T10:17:56.954Z,19.44
2018-07-11T10:18:56.962Z,19.50
2018-07-11T10:19:56.941Z,19.50
2018-07-11T10:20:56.930Z,19.55
2018-07-11T10:22:17.924Z,19.68
2018-07-11T10:22:56.916Z,19.65
2018-07-11T10:23:56.905Z,19.69
2018-07-11T10:24:56.895Z,19.80
2018-07-11T10:25:56.887Z,19.78
2018-07-11T10:26:56.881Z,19.81
2018-07-11T10:28:17.879Z,19.95
2018-07-11T10:28:56.864Z,19.95
2018-07-11T10:29:56.858Z,19.88
2018-07-11T10:30:56.850Z,19.91
2018-07-11T10:31:56.843Z,19.92
2018-07-11T10:32:56.828Z,19.84
2018-07-11T10:34:17.827Z,19.84
2018-07-11T10:34:56.821Z,19.95
2018-07-11T10:35:56.805Z,19.91
2018-07-11T10:36:56.796Z,19.95
2018-07-11T10:37:56.793Z,19.91
2018-07-11T10:38:56.795Z,20.02
2018-07-11T10:40:17.782Z,20.03
2018-07-11T10:40:56.765Z,20.03
2018-07-11T10:41:56.763Z,19.88
2018-07-11T10:42:56.755Z,19.98
2018-07-11T10:43:56.744Z,20.08
2018-07-11T10:44:56.770Z,20.10
2018-07-11T10:46:17.730Z,20.11
2018-07-11T10:46:56.716Z,20.06
2018-07-11T10:47:56.708Z,20.01
2018-07-11T10:48:56.700Z,20.17
2018-07-11T10:49:56.690Z,20.29
2018-07-11T10:50:56.691Z,20.32
2018-07-11T10:52:17.682Z,20.35
2018-07-11T10:52:56.663Z,20.36
2018-07-11T10:53:56.659Z,20.50
2018-07-11T10:54:56.658Z,20.50
2018-07-11T10:55:56.645Z,20.61
2018-07-11T10:56:56.643Z,20.54
2018-07-11T10:58:17.639Z,20.36
2018-07-11T10:58:56.623Z,20.28
2018-07-11T10:59:56.615Z,20.26
2018-07-11T11:01:05.699Z,20.23
2018-07-11T11:01:56.600Z,20.21
2018-07-11T11:02:56.583Z,20.16
2018-07-11T11:04:17.585Z,20.14
2018-07-11T11:04:56.618Z,20.17
2018-07-11T11:05:56.571Z,20.20
2018-07-11T11:06:56.557Z,20.23
2018-07-11T11:07:56.591Z,20.24
2018-07-11T11:08:56.543Z,20.20
2018-07-11T11:10:17.541Z,20.38
2018-07-11T11:10:56.529Z,20.43
2018-07-11T11:11:56.520Z,20.54
2018-07-11T11:12:56.506Z,20.67
2018-07-11T11:13:56.510Z,20.62
2018-07-11T11:14:56.494Z,20.67
2018-07-11T11:16:17.494Z,20.70
2018-07-11T11:16:56.479Z,20.82
2018-07-11T11:17:56.473Z,20.85
2018-07-11T11:18:56.466Z,20.85
2018-07-11T11:19:56.453Z,20.72
2018-07-11T11:20:56.450Z,20.73
2018-07-11T11:22:17.449Z,20.82
2018-07-11T11:22:56.441Z,20.74
2018-07-11T11:23:56.427Z,20.87
2018-07-11T11:24:56.414Z,20.95
2018-07-11T11:25:56.406Z,20.87
2018-07-11T11:26:56.400Z,20.94
2018-07-11T11:28:17.398Z,20.91
2018-07-11T11:28:56.382Z,20.98
2018-07-11T11:29:56.370Z,21.09
2018-07-11T11:30:56.372Z,21.22
2018-07-11T11:31:56.402Z,21.32
2018-07-11T11:32:56.357Z,21.31
2018-07-11T11:34:17.351Z,21.19
2018-07-11T11:34:56.339Z,21.17
2018-07-11T11:35:56.335Z,21.24
2018-07-11T11:36:56.323Z,21.31
2018-07-11T11:37:56.321Z,21.40
2018-07-11T11:38:56.315Z,21.43
2018-07-11T11:40:17.303Z,21.32
2018-07-11T11:40:56.294Z,21.32
2018-07-11T11:41:56.411Z,21.12
2018-07-11T11:42:56.315Z,20.92
2018-07-11T11:43:56.272Z,20.91
2018-07-11T11:44:56.268Z,20.91
2018-07-11T11:46:17.284Z,20.97
2018-07-11T11:46:56.247Z,21.03
2018-07-11T11:47:56.242Z,21.09
2018-07-11T11:48:56.237Z,21.13
2018-07-11T11:49:56.229Z,21.16
2018-07-11T11:50:56.225Z,21.17
2018-07-11T11:52:17.219Z,21.29
2018-07-11T11:52:56.205Z,21.38
2018-07-11T11:53:56.197Z,21.32
2018-07-11T11:54:56.198Z,21.29
2018-07-11T11:55:56.181Z,21.34
2018-07-11T11:56:56.170Z,21.47
2018-07-11T11:58:17.174Z,21.43
2018-07-11T11:58:56.156Z,21.38
2018-07-11T11:59:56.152Z,21.37
2018-07-11T12:00:56.148Z,21.43
2018-07-11T12:01:56.140Z,21.50
2018-07-11T12:02:56.132Z,21.52
2018-07-11T12:04:17.126Z,21.47
2018-07-11T12:04:56.117Z,21.50
2018-07-11T12:05:56.119Z,21.40
2018-07-11T12:06:56.099Z,21.44
2018-07-11T12:07:56.094Z,21.46
2018-07-11T12:08:56.088Z,21.56
2018-07-11T12:10:17.096Z,21.68
2018-07-11T12:10:56.075Z,21.79
2018-07-11T12:11:56.065Z,21.83
2018-07-11T12:12:56.057Z,21.82
2018-07-11T12:13:56.055Z,21.80
2018-07-11T12:14:56.045Z,21.65
2018-07-11T12:16:17.044Z,21.68
2018-07-11T12:16:56.035Z,21.64
2018-07-11T12:17:56.023Z,21.80
2018-07-11T12:18:56.017Z,21.90
2018-07-11T12:19:56.007Z,21.86
2018-07-11T12:20:55.996Z,21.79
2018-07-11T12:22:17.007Z,21.84
2018-07-11T12:22:55.982Z,21.84
2018-07-11T12:23:55.978Z,21.88
2018-07-11T12:24:55.974Z,21.82
2018-07-11T12:25:55.964Z,21.92
2018-07-11T12:26:55.958Z,22.03
2018-07-11T12:28:16.956Z,21.88
2018-07-11T12:28:55.946Z,21.86
2018-07-11T12:29:55.944Z,21.83
2018-07-11T12:30:55.929Z,21.86
2018-07-11T12:31:55.925Z,21.88
2018-07-11T12:32:55.919Z,21.88
2018-07-11T12:34:16.918Z,22.00
2018-07-11T12:34:55.903Z,22.00
2018-07-11T12:35:55.895Z,22.00
2018-07-11T12:36:55.885Z,22.00
2018-07-11T12:37:55.886Z,22.00
2018-07-11T12:38:55.871Z,22.10
2018-07-11T12:40:16.874Z,22.06
2018-07-11T12:40:55.858Z,22.10
2018-07-11T12:41:55.857Z,22.03
2018-07-11T12:42:55.850Z,22.14
2018-07-11T12:43:55.837Z,22.07
2018-07-11T12:44:55.827Z,22.12
2018-07-11T12:46:16.828Z,22.09
2018-07-11T12:46:55.822Z,21.98
2018-07-11T12:47:55.810Z,22.06
2018-07-11T12:48:55.806Z,22.06
2018-07-11T12:49:55.798Z,21.90
2018-07-11T12:50:55.788Z,22.05
2018-07-11T12:52:16.788Z,22.12